Time;durP1;ratioP1;P1;durP2;ratioP2;P2;SDS_P1;SDS_P2;PMS_P1;PMS_P2;Temp;Humidity;BMP_temperature;BMP_pressure;BME280_temperature;BME280_humidity;BME280_pressure;Samples;Min_cycle;Max_cycle;Signal;HPM_P1;HPM_P2
2024/04/15 00:01:20;;;;;;;5.05;1.52;;;12.30;99.90;;;;;;5454529;26;19999;-89
2024/04/15 00:03:46;;;;;;;9.68;1.80;;;12.30;99.90;;;;;;5453738;26;20014;-91
2024/04/15 00:06:11;;;;;;;4.30;1.30;;;12.30;99.90;;;;;;5454506;26;20006;-90
2024/04/15 00:08:37;;;;;;;7.28;1.48;;;12.30;99.90;;;;;;5455311;26;20085;-91
2024/04/15 00:11:04;;;;;;;4.88;1.50;;;12.20;99.90;;;;;;5471798;26;20048;-89
2024/04/15 00:13:29;;;;;;;6.85;1.58;;;12.20;99.90;;;;;;5472611;26;19999;-89
2024/04/15 00:15:56;;;;;;;4.03;1.35;;;12.20;99.90;;;;;;5469146;26;20315;-89
2024/04/15 00:18:22;;;;;;;3.20;1.30;;;12.10;99.90;;;;;;5457889;26;20013;-89
2024/04/15 00:20:48;;;;;;;4.55;1.88;;;12.10;99.90;;;;;;5457244;26;19999;-89
2024/04/15 00:23:13;;;;;;;6.97;1.50;;;12.00;99.90;;;;;;5457582;26;20337;-89
2024/04/15 00:25:39;;;;;;;10.82;1.73;;;12.00;99.90;;;;;;5471744;26;19991;-89
2024/04/15 00:28:06;;;;;;;7.70;1.60;;;12.00;99.90;;;;;;5467590;26;19998;-90
2024/04/15 00:30:34;;;;;;;8.23;1.55;;;11.90;99.90;;;;;;5458509;26;20009;-89
2024/04/15 00:33:00;;;;;;;6.47;1.60;;;11.90;99.90;;;;;;5460362;26;20013;-88
2024/04/15 00:35:25;;;;;;;12.48;2.00;;;11.90;99.90;;;;;;5458696;26;20003;-89
2024/04/15 00:37:51;;;;;;;7.63;1.85;;;11.90;99.90;;;;;;5461062;26;19995;-90
2024/04/15 00:40:16;;;;;;;11.95;1.75;;;11.90;99.90;;;;;;5458117;26;20450;-89
2024/04/15 00:42:42;;;;;;;8.57;2.42;;;11.80;99.90;;;;;;5456833;26;20014;-89
2024/04/15 00:45:31;;;;;;;7.28;2.33;;;11.80;99.90;;;;;;5457286;26;19998;-90
2024/04/15 00:48:05;;;;;;;10.48;2.05;;;11.80;99.90;;;;;;5457138;26;20315;-90
2024/04/15 00:50:37;;;;;;;12.15;2.88;;;11.70;99.90;;;;;;5457372;26;20006;-89
2024/04/15 00:53:04;;;;;;;11.15;2.40;;;11.80;99.90;;;;;;5457706;26;20035;-88
2024/04/15 00:55:32;;;;;;;8.40;2.25;;;12.60;99.90;;;;;;5456628;26;19999;-89
2024/04/15 00:57:59;;;;;;;10.05;3.20;;;11.70;99.90;;;;;;5476109;26;20006;-89
2024/04/15 01:00:25;;;;;;;7.18;2.05;;;11.80;99.90;;;;;;5461601;26;20017;-90
2024/04/15 01:02:50;;;;;;;7.68;2.67;;;11.80;99.90;;;;;;5456319;26;19994;-89
2024/04/15 01:05:16;;;;;;;10.75;2.45;;;11.70;99.90;;;;;;5457176;26;19998;-89
2024/04/15 01:07:42;;;;;;;9.10;2.05;;;11.70;99.90;;;;;;5456733;26;20009;-91
2024/04/15 01:10:07;;;;;;;11.32;2.22;;;11.70;99.90;;;;;;5456532;26;20017;-91
2024/04/15 01:12:34;;;;;;;6.47;2.03;;;11.70;99.90;;;;;;5456730;26;19999;-91
2024/04/15 01:15:00;;;;;;;10.85;2.35;;;11.60;99.90;;;;;;5458143;26;20013;-90
2024/04/15 01:17:25;;;;;;;7.55;2.55;;;11.60;99.90;;;;;;5456655;26;20457;-90
2024/04/15 01:19:51;;;;;;;5.57;2.38;;;11.60;99.90;;;;;;5459822;26;20010;-91
2024/04/15 01:22:23;;;;;;;5.70;2.00;;;11.60;99.90;;;;;;5456107;26;20006;-90
2024/04/15 01:24:49;;;;;;;8.10;1.77;;;11.50;99.90;;;;;;5456137;26;19999;-88
2024/04/15 01:27:15;;;;;;;7.45;2.03;;;11.50;99.90;;;;;;5456648;26;20013;-88
2024/04/15 01:29:41;;;;;;;16.20;2.10;;;11.50;99.90;;;;;;5456536;26;20003;-87
2024/04/15 01:32:07;;;;;;;7.43;2.10;;;11.40;99.90;;;;;;5456195;26;20008;-89
2024/04/15 01:34:32;;;;;;;7.55;1.90;;;11.40;99.90;;;;;;5466443;26;20006;-89
2024/04/15 01:36:58;;;;;;;7.43;2.22;;;11.40;99.90;;;;;;5468927;26;20051;-87
2024/04/15 01:39:23;;;;;;;5.85;2.22;;;11.40;99.90;;;;;;5468827;26;19998;-88
2024/04/15 01:41:49;;;;;;;6.50;2.33;;;11.40;99.90;;;;;;5457234;26;20387;-89
2024/04/15 01:44:15;;;;;;;7.53;2.65;;;11.40;99.90;;;;;;5456826;26;19998;-88
2024/04/15 01:46:40;;;;;;;6.50;2.22;;;11.30;99.90;;;;;;5456174;26;20003;-89
2024/04/15 01:49:06;;;;;;;10.10;2.85;;;11.30;99.90;;;;;;5456091;26;20010;-90
2024/04/15 01:51:32;;;;;;;10.82;2.28;;;11.30;99.90;;;;;;5455166;26;19999;-89
2024/04/15 01:53:57;;;;;;;8.02;2.55;;;11.30;99.90;;;;;;5456169;26;20003;-89
2024/04/15 01:56:23;;;;;;;10.82;2.22;;;11.40;99.90;;;;;;5455906;26;20015;-88
2024/04/15 01:58:48;;;;;;;7.30;1.85;;;11.30;99.90;;;;;;5455563;26;19995;-88
2024/04/15 02:01:14;;;;;;;10.77;2.55;;;11.30;99.90;;;;;;5456268;26;20411;-88
2024/04/15 02:03:42;;;;;;;10.05;2.00;;;11.30;99.90;;;;;;5455883;26;20003;-88
2024/04/15 02:06:07;;;;;;;14.57;3.20;;;11.30;99.90;;;;;;5456219;26;20002;-90
2024/04/15 02:08:33;;;;;;;14.05;2.70;;;11.30;99.90;;;;;;5455793;26;19995;-90
2024/04/15 02:10:58;;;;;;;10.02;2.30;;;11.20;99.90;;;;;;5455525;26;20003;-89
2024/04/15 02:13:24;;;;;;;10.57;2.63;;;11.40;99.90;;;;;;5455438;26;20076;-90
2024/04/15 02:15:49;;;;;;;7.50;2.40;;;11.20;99.90;;;;;;5466134;26;20005;-90
2024/04/15 02:18:15;;;;;;;9.30;2.40;;;11.20;99.90;;;;;;5466671;26;19995;-88
2024/04/15 02:20:41;;;;;;;18.42;3.33;;;11.20;99.90;;;;;;5455019;26;20438;-88
2024/04/15 02:23:07;;;;;;;10.48;2.58;;;11.10;99.90;;;;;;5455871;26;20013;-91
2024/04/15 02:25:33;;;;;;;12.43;2.67;;;11.10;99.90;;;;;;5455593;26;20323;-90
2024/04/15 02:27:58;;;;;;;12.55;2.45;;;11.10;99.90;;;;;;5454789;26;20446;-90
2024/04/15 02:30:24;;;;;;;8.65;2.67;;;11.50;99.90;;;;;;5455522;26;20018;-91
2024/04/15 02:32:49;;;;;;;16.20;2.60;;;11.10;99.90;;;;;;5453565;26;19999;-90
2024/04/15 02:35:15;;;;;;;14.10;2.90;;;11.10;99.90;;;;;;5454558;26;20437;-90
2024/04/15 02:37:41;;;;;;;11.40;2.72;;;11.10;99.90;;;;;;5455352;26;20326;-90
2024/04/15 02:40:07;;;;;;;10.23;2.58;;;11.10;99.90;;;;;;5455132;26;20452;-88
2024/04/15 02:42:33;;;;;;;11.50;3.10;;;11.10;99.90;;;;;;5454927;26;20017;-89
2024/04/15 02:44:59;;;;;;;13.65;2.30;;;11.10;99.90;;;;;;5455290;26;20003;-90
2024/04/15 02:47:24;;;;;;;10.48;2.38;;;11.10;99.90;;;;;;5455118;26;20014;-90
2024/04/15 02:49:50;;;;;;;11.02;3.00;;;11.10;99.90;;;;;;5455176;26;20002;-90
2024/04/15 02:52:15;;;;;;;10.30;2.83;;;11.10;99.90;;;;;;5455081;26;19995;-92
2024/04/15 02:54:41;;;;;;;10.10;2.95;;;11.60;99.90;;;;;;5454682;26;19998;-90
2024/04/15 02:57:06;;;;;;;13.82;3.40;;;11.10;99.90;;;;;;5456642;26;20013;-90
2024/04/15 02:59:32;;;;;;;13.43;3.03;;;12.00;99.90;;;;;;5456642;26;20015;-90
2024/04/15 03:01:58;;;;;;;16.67;2.95;;;11.20;99.90;;;;;;5456231;26;19995;-90
2024/04/15 03:04:23;;;;;;;11.70;2.75;;;11.20;99.90;;;;;;5456574;26;20064;-89
2024/04/15 03:06:51;;;;;;;16.75;3.63;;;11.20;99.90;;;;;;5456247;26;20031;-89
2024/04/15 03:09:20;;;;;;;9.05;2.60;;;11.20;99.90;;;;;;5454121;26;20015;-89
2024/04/15 03:11:46;;;;;;;13.20;3.60;;;11.20;99.90;;;;;;5454760;26;19994;-90
2024/04/15 03:14:11;;;;;;;11.23;3.25;;;11.20;99.90;;;;;;5454633;26;20399;-89
2024/04/15 03:16:37;;;;;;;10.68;3.20;;;11.10;99.90;;;;;;5454182;26;20454;-90
2024/04/15 03:19:02;;;;;;;13.27;2.92;;;11.40;99.90;;;;;;5454500;26;20453;-89
2024/04/15 03:21:28;;;;;;;13.73;3.38;;;11.20;99.90;;;;;;5454900;26;20506;-91
2024/04/15 03:23:53;;;;;;;15.60;3.97;;;11.30;99.90;;;;;;5454143;26;20003;-90
2024/04/15 03:26:19;;;;;;;14.82;4.35;;;11.30;99.90;;;;;;5454072;26;20009;-89
2024/04/15 03:28:44;;;;;;;13.02;3.50;;;11.30;99.90;;;;;;5454501;26;20003;-90
2024/04/15 03:31:10;;;;;;;14.15;4.00;;;11.30;99.90;;;;;;5453885;26;20003;-89
2024/04/15 03:33:38;;;;;;;14.57;4.50;;;11.30;99.90;;;;;;5453938;26;20017;-91
2024/04/15 03:36:04;;;;;;;16.42;4.13;;;11.30;99.90;;;;;;5471216;26;20067;-90
2024/04/15 03:38:29;;;;;;;15.57;4.15;;;11.20;99.90;;;;;;5458992;26;20003;-90
2024/04/15 03:40:55;;;;;;;16.25;4.05;;;11.20;99.90;;;;;;5454579;26;20438;-90
2024/04/15 03:43:21;;;;;;;14.27;3.97;;;11.30;99.90;;;;;;5454035;26;20464;-90
2024/04/15 03:45:46;;;;;;;10.80;3.70;;;11.30;99.90;;;;;;5457048;26;19995;-90
2024/04/15 03:48:12;;;;;;;20.17;3.60;;;11.30;99.90;;;;;;5457901;26;19999;-89
2024/04/15 03:50:37;;;;;;;13.43;3.42;;;11.40;99.90;;;;;;5457749;26;19998;-90
2024/04/15 03:53:03;;;;;;;21.15;4.13;;;11.40;99.90;;;;;;5457064;26;20103;-90
2024/04/15 03:55:28;;;;;;;15.60;3.83;;;11.40;99.90;;;;;;5457480;26;20000;-89
2024/04/15 03:57:54;;;;;;;10.30;3.08;;;11.30;99.90;;;;;;5457311;26;20013;-90
2024/04/15 04:00:19;;;;;;;14.38;3.55;;;11.30;99.90;;;;;;5457275;26;20010;-89
2024/04/15 04:02:45;;;;;;;11.68;3.85;;;11.30;99.90;;;;;;5457673;26;20010;-89
2024/04/15 04:05:11;;;;;;;17.60;3.58;;;11.30;99.90;;;;;;5457117;26;20018;-89
2024/04/15 04:07:36;;;;;;;11.95;3.25;;;11.20;99.90;;;;;;5457088;26;20442;-88
2024/04/15 04:10:02;;;;;;;16.63;4.93;;;11.30;99.90;;;;;;5457074;26;20003;-89
2024/04/15 04:12:27;;;;;;;14.52;3.70;;;11.20;99.90;;;;;;5456497;26;20010;-89
2024/04/15 04:14:53;;;;;;;15.45;3.50;;;11.20;99.90;;;;;;5457254;26;19999;-90
2024/04/15 04:17:18;;;;;;;15.88;3.95;;;11.20;99.90;;;;;;5457257;26;20009;-88
2024/04/15 04:19:45;;;;;;;23.58;3.92;;;11.20;99.90;;;;;;5456946;26;20003;-89
2024/04/15 04:22:10;;;;;;;18.33;3.95;;;11.20;99.90;;;;;;5457302;26;19991;-89
2024/04/15 04:24:37;;;;;;;18.35;4.50;;;11.20;99.90;;;;;;5457215;26;20013;-88
2024/04/15 04:27:03;;;;;;;16.80;3.90;;;11.10;99.90;;;;;;5456767;26;20068;-88
2024/04/15 04:29:29;;;;;;;11.27;3.60;;;11.20;99.90;;;;;;5457247;26;20071;-90
2024/04/15 04:31:54;;;;;;;15.07;4.00;;;11.10;99.90;;;;;;5457468;26;20006;-88
2024/04/15 04:34:20;;;;;;;14.88;3.80;;;11.20;99.90;;;;;;5457279;26;20002;-89
2024/04/15 04:36:45;;;;;;;18.02;4.50;;;11.20;99.90;;;;;;5457092;26;20006;-89
2024/04/15 04:39:11;;;;;;;6.38;3.05;;;11.20;99.90;;;;;;5456963;26;19998;-89
2024/04/15 04:41:38;;;;;;;13.98;3.83;;;11.20;99.90;;;;;;5458592;26;19995;-88
2024/04/15 04:44:03;;;;;;;14.40;3.80;;;11.20;99.90;;;;;;5458803;26;20074;-90
2024/04/15 04:46:29;;;;;;;10.13;3.47;;;11.20;99.90;;;;;;5461221;26;20007;-89
2024/04/15 04:48:55;;;;;;;16.02;3.40;;;11.30;99.90;;;;;;5460402;26;19999;-89
2024/04/15 04:51:20;;;;;;;10.40;3.00;;;12.00;99.90;;;;;;5457803;26;20040;-89
2024/04/15 04:53:46;;;;;;;14.68;3.05;;;11.20;99.90;;;;;;5464378;26;20007;-89
2024/04/15 04:56:12;;;;;;;8.65;2.92;;;11.10;99.90;;;;;;5473304;26;20337;-89
2024/04/15 04:58:38;;;;;;;12.45;3.08;;;11.10;99.90;;;;;;5469101;26;20035;-89
2024/04/15 05:01:12;;;;;;;12.60;3.08;;;11.10;99.90;;;;;;5468684;26;20032;-89
2024/04/15 05:03:42;;;;;;;16.85;2.97;;;11.10;99.90;;;;;;5467966;26;20018;-88
2024/04/15 05:06:08;;;;;;;8.00;2.30;;;11.10;99.90;;;;;;5463158;26;19995;-88
2024/04/15 05:08:34;;;;;;;9.93;2.88;;;11.10;99.90;;;;;;5456489;26;20003;-89
2024/04/15 05:11:00;;;;;;;13.80;2.83;;;11.00;99.90;;;;;;5458098;26;20345;-89
2024/04/15 05:13:26;;;;;;;10.93;3.08;;;11.00;99.90;;;;;;5457221;26;20014;-89
2024/04/15 05:15:52;;;;;;;9.60;3.10;;;10.90;99.90;;;;;;5457066;26;20414;-90
2024/04/15 05:18:18;;;;;;;11.95;2.88;;;10.90;99.90;;;;;;5464256;26;20052;-88
2024/04/15 05:20:43;;;;;;;9.73;2.63;;;10.90;99.90;;;;;;5472460;26;20010;-89
2024/04/15 05:23:09;;;;;;;12.13;3.17;;;10.80;99.90;;;;;;5470191;26;20007;-88
2024/04/15 05:25:37;;;;;;;10.43;2.25;;;10.80;99.90;;;;;;5463821;26;20446;-89
2024/04/15 05:28:03;;;;;;;12.15;2.70;;;10.80;99.90;;;;;;5456333;26;20010;-89
2024/04/15 05:30:29;;;;;;;18.58;2.25;;;10.70;99.90;;;;;;5456258;26;20337;-88
2024/04/15 05:32:54;;;;;;;15.57;2.72;;;10.70;99.90;;;;;;5456405;26;20449;-89
2024/04/15 05:35:20;;;;;;;12.25;2.80;;;10.70;99.90;;;;;;5456765;26;19999;-90
2024/04/15 05:37:45;;;;;;;11.35;2.70;;;10.70;99.90;;;;;;5456205;26;20010;-89
2024/04/15 05:40:11;;;;;;;9.50;1.95;;;11.40;99.90;;;;;;5459088;26;19998;-89
2024/04/15 05:42:36;;;;;;;7.90;1.75;;;10.90;99.90;;;;;;5465270;26;19994;-90
2024/04/15 05:45:02;;;;;;;3.97;1.58;;;10.70;99.90;;;;;;5463737;26;20502;-90
2024/04/15 05:47:28;;;;;;;7.97;1.77;;;10.70;99.90;;;;;;5456569;26;20446;-89
2024/04/15 05:49:53;;;;;;;8.45;1.92;;;10.70;99.90;;;;;;5456604;26;20018;-89
2024/04/15 05:52:19;;;;;;;16.05;2.70;;;10.70;99.90;;;;;;5455844;26;20073;-90
2024/04/15 05:54:45;;;;;;;8.70;2.00;;;10.70;99.90;;;;;;5456716;26;20446;-91
2024/04/15 05:57:10;;;;;;;6.18;2.30;;;11.40;99.90;;;;;;5456761;26;20021;-90
2024/04/15 05:59:36;;;;;;;17.42;2.17;;;10.70;99.90;;;;;;5456029;26;20084;-90
2024/04/15 06:02:01;;;;;;;11.05;2.70;;;10.70;99.90;;;;;;5456435;26;20375;-90
2024/04/15 06:04:28;;;;;;;10.65;1.85;;;10.70;99.90;;;;;;5456477;26;20531;-91
2024/04/15 06:06:53;;;;;;;11.57;2.45;;;10.70;99.90;;;;;;5455775;26;20470;-90
2024/04/15 06:09:19;;;;;;;15.85;2.10;;;11.30;99.90;;;;;;5456699;26;19999;-91
2024/04/15 06:11:44;;;;;;;8.15;1.42;;;10.60;99.90;;;;;;5456500;26;19995;-91
2024/04/15 06:14:10;;;;;;;10.35;2.17;;;10.80;99.90;;;;;;5473831;26;19991;-89
2024/04/15 06:16:36;;;;;;;13.20;2.75;;;10.70;99.90;;;;;;5474239;26;19991;-89
2024/04/15 06:19:01;;;;;;;11.18;2.10;;;10.70;99.90;;;;;;5463552;26;20007;-89
2024/04/15 06:21:27;;;;;;;8.70;2.17;;;10.70;99.90;;;;;;5456523;26;20010;-89
2024/04/15 06:23:52;;;;;;;11.85;2.15;;;10.70;99.90;;;;;;5455858;26;20033;-91
2024/04/15 06:26:18;;;;;;;4.60;1.67;;;10.80;99.90;;;;;;5455695;26;20006;-90
2024/04/15 06:28:43;;;;;;;10.48;1.83;;;10.80;99.90;;;;;;5461396;26;20002;-90
2024/04/15 06:31:10;;;;;;;7.82;2.20;;;10.70;99.90;;;;;;5457233;26;20007;-91
2024/04/15 06:33:35;;;;;;;13.23;2.33;;;10.80;99.90;;;;;;5464248;26;20010;-89
2024/04/15 06:36:01;;;;;;;8.55;2.38;;;10.80;99.90;;;;;;5456415;26;20026;-90
2024/04/15 06:38:26;;;;;;;11.80;2.67;;;10.80;99.90;;;;;;5456458;26;19999;-89
2024/04/15 06:40:52;;;;;;;15.43;2.40;;;11.30;99.90;;;;;;5456341;26;19995;-90
2024/04/15 06:43:18;;;;;;;8.60;2.10;;;10.80;99.90;;;;;;5456390;26;19999;-91
2024/04/15 06:45:43;;;;;;;11.35;2.45;;;10.80;99.90;;;;;;5455873;26;19999;-90
2024/04/15 06:48:09;;;;;;;9.32;1.80;;;10.90;99.90;;;;;;5455674;26;20043;-90
2024/04/15 06:50:35;;;;;;;10.57;3.03;;;10.90;99.90;;;;;;5456143;26;19999;-89
2024/04/15 06:53:03;;;;;;;13.88;2.38;;;10.90;99.90;;;;;;5455838;26;20010;-90
2024/04/15 06:55:29;;;;;;;14.45;3.58;;;10.50;99.90;;;;;;5455699;26;20010;-90
2024/04/15 06:57:55;;;;;;;8.50;3.53;;;10.90;99.90;;;;;;5457733;26;20011;-89
2024/04/15 07:00:20;;;;;;;13.38;3.47;;;11.00;99.90;;;;;;5455894;26;20071;-89
2024/04/15 07:02:46;;;;;;;13.25;3.20;;;10.90;99.90;;;;;;5458283;26;20029;-89
2024/04/15 07:05:11;;;;;;;11.77;4.03;;;10.90;99.90;;;;;;5465347;26;20013;-90
2024/04/15 07:07:37;;;;;;;14.38;2.92;;;11.00;99.90;;;;;;5457838;26;19998;-89
2024/04/15 07:10:04;;;;;;;11.75;3.00;;;10.90;99.90;;;;;;5454679;26;20000;-90
2024/04/15 07:12:32;;;;;;;15.13;3.30;;;11.00;99.90;;;;;;5455455;26;20046;-90
2024/04/15 07:14:57;;;;;;;18.48;3.55;;;11.00;99.90;;;;;;5454062;26;20005;-89
2024/04/15 07:17:23;;;;;;;16.23;3.80;;;11.10;99.90;;;;;;5455208;26;19999;-90
2024/04/15 07:19:49;;;;;;;20.17;4.55;;;10.90;99.90;;;;;;5453652;26;20027;-88
2024/04/15 07:22:17;;;;;;;10.18;3.08;;;10.90;99.90;;;;;;5454159;26;19999;-90
2024/04/15 07:24:43;;;;;;;12.38;3.30;;;10.90;99.90;;;;;;5454701;26;20011;-89
2024/04/15 07:27:09;;;;;;;16.13;3.17;;;10.90;99.90;;;;;;5455092;26;20005;-90
2024/04/15 07:29:35;;;;;;;14.50;3.58;;;11.00;99.90;;;;;;5455111;26;19999;-88
2024/04/15 07:32:02;;;;;;;15.60;3.42;;;11.10;99.90;;;;;;5461962;26;19991;-89
2024/04/15 07:34:27;;;;;;;12.02;3.50;;;11.10;99.90;;;;;;5471093;26;20002;-89
2024/04/15 07:36:53;;;;;;;14.10;3.45;;;11.00;99.90;;;;;;5457187;26;20005;-89
2024/04/15 07:39:18;;;;;;;11.98;2.80;;;11.00;99.90;;;;;;5454826;26;20014;-88
2024/04/15 07:41:45;;;;;;;13.20;3.47;;;11.00;99.90;;;;;;5454529;26;20072;-89
2024/04/15 07:44:11;;;;;;;21.65;3.60;;;11.00;99.90;;;;;;5454504;26;20010;-88
2024/04/15 07:46:37;;;;;;;15.40;3.72;;;11.90;99.90;;;;;;5454617;26;20002;-89
2024/04/15 07:49:02;;;;;;;7.18;3.17;;;11.00;99.90;;;;;;5454599;26;20006;-89
2024/04/15 07:51:28;;;;;;;10.95;3.42;;;11.00;99.90;;;;;;5453895;26;19999;-89
2024/04/15 07:53:54;;;;;;;13.43;3.20;;;11.00;99.90;;;;;;5454308;26;20009;-89
2024/04/15 07:56:20;;;;;;;10.60;3.33;;;11.00;99.90;;;;;;5454162;26;20002;-89
2024/04/15 07:58:45;;;;;;;20.80;3.80;;;10.90;99.90;;;;;;5453784;26;20013;-89
2024/04/15 08:01:11;;;;;;;14.68;3.50;;;10.90;99.90;;;;;;5454411;26;20013;-89
2024/04/15 08:03:37;;;;;;;9.93;3.65;;;10.90;99.90;;;;;;5454489;26;20452;-89
2024/04/15 08:06:02;;;;;;;20.17;4.22;;;10.90;99.90;;;;;;5454998;26;20003;-89
2024/04/15 08:08:28;;;;;;;11.20;3.15;;;11.00;99.90;;;;;;5455818;26;20400;-89
2024/04/15 08:10:54;;;;;;;19.83;3.65;;;11.00;99.90;;;;;;5454177;26;20067;-89
2024/04/15 08:13:19;;;;;;;11.60;2.95;;;11.00;99.90;;;;;;5453215;26;19999;-89
2024/04/15 08:15:48;;;;;;;10.88;3.17;;;11.00;99.90;;;;;;5453698;26;20002;-89
2024/04/15 08:18:13;;;;;;;9.30;2.20;;;11.10;99.90;;;;;;5453989;26;19999;-89
2024/04/15 08:20:39;;;;;;;14.50;3.30;;;11.10;99.90;;;;;;5453914;26;20055;-89
2024/04/15 08:23:05;;;;;;;9.25;2.97;;;11.10;99.90;;;;;;5453451;26;20019;-89
2024/04/15 08:25:30;;;;;;;7.28;2.42;;;11.10;99.90;;;;;;5453087;26;20099;-89
2024/04/15 08:27:56;;;;;;;12.63;3.25;;;11.00;99.90;;;;;;5453660;26;20459;-89
2024/04/15 08:30:22;;;;;;;9.13;2.88;;;11.10;99.90;;;;;;5454845;26;19999;-88
2024/04/15 08:32:50;;;;;;;6.68;2.55;;;11.10;99.90;;;;;;5456617;26;20009;-89
2024/04/15 08:35:16;;;;;;;7.43;2.42;;;11.10;99.90;;;;;;5456830;26;20032;-90
2024/04/15 08:37:42;;;;;;;14.48;2.83;;;11.10;99.90;;;;;;5456899;26;20068;-88
2024/04/15 08:40:09;;;;;;;10.88;2.20;;;11.10;99.90;;;;;;5456945;26;20015;-90
2024/04/15 08:42:45;;;;;;;9.77;2.28;;;11.10;99.90;;;;;;5457208;26;19999;-89
2024/04/15 08:45:17;;;;;;;9.98;2.10;;;11.10;99.90;;;;;;5457200;26;20005;-89
2024/04/15 08:47:48;;;;;;;11.80;2.35;;;11.90;99.90;;;;;;5456044;26;20543;-89
2024/04/15 08:50:14;;;;;;;15.30;2.90;;;11.20;99.90;;;;;;5457934;26;20018;-90
2024/04/15 08:52:41;;;;;;;13.75;3.20;;;11.30;99.90;;;;;;5473368;26;20076;-90
2024/04/15 08:55:10;;;;;;;15.82;2.90;;;11.90;99.90;;;;;;5461990;26;20052;-89
2024/04/15 08:57:36;;;;;;;15.23;2.83;;;11.30;99.90;;;;;;5458800;26;19999;-90
2024/04/15 09:00:04;;;;;;;9.00;2.00;;;11.40;99.90;;;;;;5457448;26;20441;-90
2024/04/15 09:02:31;;;;;;;10.15;2.20;;;11.30;99.90;;;;;;5460030;26;20003;-89
2024/04/15 09:04:57;;;;;;;15.63;2.83;;;11.40;99.90;;;;;;5464341;26;20337;-89
2024/04/15 09:07:23;;;;;;;9.88;1.95;;;11.40;99.90;;;;;;5463789;26;20014;-90
2024/04/15 09:09:49;;;;;;;13.00;2.58;;;11.30;99.90;;;;;;5460150;26;19998;-89
2024/04/15 09:12:14;;;;;;;8.15;2.22;;;11.30;99.90;;;;;;5457435;26;19995;-91
2024/04/15 09:14:40;;;;;;;15.02;2.05;;;11.40;99.90;;;;;;5456478;26;19998;-89
2024/04/15 09:17:06;;;;;;;7.85;1.63;;;11.70;99.90;;;;;;5456936;26;20071;-89
2024/04/15 09:19:34;;;;;;;6.65;2.00;;;11.30;99.90;;;;;;5457160;26;20334;-88
2024/04/15 09:22:00;;;;;;;16.00;2.47;;;11.30;99.90;;;;;;5456506;26;20007;-89
2024/04/15 09:24:26;;;;;;;9.77;2.25;;;11.50;99.90;;;;;;5456869;26;20003;-89
2024/04/15 09:26:52;;;;;;;11.65;2.30;;;11.40;99.90;;;;;;5456595;26;20009;-89
2024/04/15 09:29:18;;;;;;;8.65;1.85;;;11.40;99.90;;;;;;5455984;26;20083;-89
2024/04/15 09:31:43;;;;;;;6.65;2.00;;;11.50;99.90;;;;;;5456560;26;20024;-89
2024/04/15 09:34:09;;;;;;;7.28;1.70;;;11.40;99.90;;;;;;5456633;26;19999;-90
2024/04/15 09:36:41;;;;;;;8.45;2.45;;;11.50;99.90;;;;;;5455753;26;20031;-88
2024/04/15 09:39:08;;;;;;;10.45;2.38;;;11.40;99.90;;;;;;5456919;26;20005;-89
2024/04/15 09:41:34;;;;;;;11.20;2.33;;;12.30;99.90;;;;;;5455752;26;19999;-88
2024/04/15 09:44:00;;;;;;;9.27;2.22;;;11.40;99.90;;;;;;5458187;26;20083;-89
2024/04/15 09:46:31;;;;;;;12.50;2.67;;;11.30;99.90;;;;;;5456817;26;19995;-89
2024/04/15 09:48:57;;;;;;;10.68;2.47;;;11.30;99.90;;;;;;5458792;26;19999;-90
2024/04/15 09:51:24;;;;;;;3.97;1.98;;;11.30;99.90;;;;;;5455640;26;20131;-89
2024/04/15 09:53:54;;;;;;;9.25;2.75;;;11.20;99.90;;;;;;5456047;26;20013;-88
2024/04/15 09:56:25;;;;;;;8.27;2.70;;;11.50;99.90;;;;;;5455859;26;19999;-89
2024/04/15 09:58:55;;;;;;;7.55;2.10;;;11.40;99.90;;;;;;5455213;26;20007;-88
2024/04/15 10:01:40;;;;;;;19.47;3.20;;;11.30;99.90;;;;;;5456053;26;19998;-90
2024/04/15 10:04:30;;;;;;;7.32;2.60;;;11.30;99.90;;;;;;5447343;26;19999;-89
2024/04/15 10:07:02;;;;;;;18.77;2.67;;;11.30;99.90;;;;;;5456468;26;20009;-89
2024/04/15 10:09:28;;;;;;;6.72;2.33;;;11.30;99.90;;;;;;5456359;26;20002;-88
2024/04/15 10:11:54;;;;;;;13.05;3.15;;;11.40;99.90;;;;;;5473556;26;19995;-89
2024/04/15 10:14:21;;;;;;;10.88;3.55;;;11.30;99.90;;;;;;5461570;26;19999;-89
2024/04/15 10:16:47;;;;;;;10.35;2.75;;;11.50;99.90;;;;;;5456964;26;20006;-89
2024/04/15 10:19:27;;;;;;;9.50;3.05;;;11.10;99.90;;;;;;5455184;26;20469;-88
2024/04/15 10:21:54;;;;;;;8.20;2.90;;;11.10;99.90;;;;;;5456595;26;20010;-89
2024/04/15 10:24:22;;;;;;;13.40;3.33;;;11.50;99.90;;;;;;5456502;26;20013;-89
2024/04/15 10:26:48;;;;;;;8.68;3.33;;;10.80;99.90;;;;;;5454824;26;20066;-89
2024/04/15 10:29:19;;;;;;;10.70;3.15;;;10.80;99.90;;;;;;5455251;26;20013;-89
2024/04/15 10:31:50;;;;;;;9.27;3.10;;;10.70;99.90;;;;;;5455593;26;20014;-89
2024/04/15 10:34:15;;;;;;;11.70;3.47;;;10.60;99.90;;;;;;5455567;26;20021;-88
2024/04/15 10:36:44;;;;;;;11.07;2.92;;;10.60;99.90;;;;;;5455198;26;19999;-89
2024/04/15 10:39:17;;;;;;;15.13;4.68;;;10.50;99.90;;;;;;5454501;26;20015;-89
2024/04/15 10:41:44;;;;;;;9.20;3.47;;;10.50;99.90;;;;;;5454960;26;20002;-89
2024/04/15 10:44:10;;;;;;;17.58;3.90;;;10.50;99.90;;;;;;5455506;26;20329;-88
2024/04/15 10:46:44;;;;;;;10.77;3.63;;;10.40;99.90;;;;;;5454459;26;20009;-88
2024/04/15 10:49:10;;;;;;;13.52;4.35;;;10.40;99.90;;;;;;5455186;26;19998;-88
2024/04/15 10:51:37;;;;;;;14.52;4.25;;;10.40;99.90;;;;;;5454182;26;20014;-88
2024/04/15 10:54:04;;;;;;;8.15;3.20;;;10.40;99.90;;;;;;5452727;26;20033;-88
2024/04/15 10:56:29;;;;;;;13.25;3.85;;;10.40;99.90;;;;;;5455083;26;20003;-88
2024/04/15 10:58:55;;;;;;;11.25;3.40;;;10.30;99.90;;;;;;5454623;26;20009;-88
2024/04/15 11:01:21;;;;;;;6.10;2.75;;;10.40;99.90;;;;;;5454311;26;20083;-89
2024/04/15 11:03:47;;;;;;;9.27;3.58;;;10.40;99.90;;;;;;5454189;26;20068;-89
2024/04/15 11:06:13;;;;;;;10.82;2.85;;;10.40;99.90;;;;;;5455101;26;19998;-89
2024/04/15 11:08:39;;;;;;;9.98;3.08;;;10.50;99.90;;;;;;5454565;26;20527;-91
2024/04/15 11:11:08;;;;;;;14.68;3.40;;;11.20;99.90;;;;;;5454993;26;20007;-90
2024/04/15 11:13:34;;;;;;;10.10;2.92;;;10.50;99.90;;;;;;5454898;26;20006;-90
2024/04/15 11:16:00;;;;;;;12.10;3.25;;;10.60;99.90;;;;;;5454503;26;20017;-90
2024/04/15 11:18:26;;;;;;;9.35;2.45;;;10.60;99.90;;;;;;5454786;26;20009;-90
2024/04/15 11:20:59;;;;;;;10.95;2.72;;;10.60;99.90;;;;;;5455150;26;20033;-90
2024/04/15 11:23:25;;;;;;;7.45;3.00;;;10.60;99.90;;;;;;5454435;26;20011;-89
2024/04/15 11:25:52;;;;;;;5.15;1.98;;;10.70;99.90;;;;;;5454308;26;20067;-90
2024/04/15 11:28:19;;;;;;;11.55;2.17;;;10.80;99.90;;;;;;5453967;26;20079;-89
2024/04/15 11:30:45;;;;;;;5.80;1.80;;;10.70;99.90;;;;;;5467646;26;20006;-89
2024/04/15 11:33:12;;;;;;;32.53;2.20;;;10.80;99.90;;;;;;5455674;26;20018;-91
2024/04/15 11:35:48;;;;;;;7.45;1.67;;;10.90;99.90;;;;;;5454114;26;20040;-90
2024/04/15 11:38:14;;;;;;;10.88;1.88;;;11.00;99.90;;;;;;5454420;26;19994;-90
2024/04/15 11:40:40;;;;;;;8.95;1.77;;;11.00;99.90;;;;;;5454290;26;19998;-89
2024/04/15 11:43:09;;;;;;;9.13;2.28;;;11.10;99.90;;;;;;5454076;26;20072;-89
2024/04/15 11:45:35;;;;;;;7.10;1.98;;;11.10;99.90;;;;;;5454382;26;20003;-90
2024/04/15 11:48:00;;;;;;;10.55;2.33;;;11.90;99.90;;;;;;5454438;26;20017;-89
2024/04/15 11:50:26;;;;;;;11.52;2.50;;;12.00;99.90;;;;;;5453815;26;19999;-89
2024/04/15 11:52:55;;;;;;;12.02;1.88;;;11.20;99.90;;;;;;5453877;26;20068;-92
2024/04/15 11:55:22;;;;;;;9.52;1.67;;;11.30;99.90;;;;;;5454052;26;20002;-89
2024/04/15 11:57:49;;;;;;;4.57;1.70;;;11.30;99.90;;;;;;5453789;26;20096;-90
2024/04/15 12:00:15;;;;;;;11.38;2.33;;;11.30;99.90;;;;;;5454191;26;19999;-88
2024/04/15 12:02:42;;;;;;;5.00;2.30;;;11.40;99.90;;;;;;5453983;26;20067;-89
2024/04/15 12:05:09;;;;;;;7.95;2.63;;;11.30;99.90;;;;;;5454829;26;20031;-89
2024/04/15 12:07:34;;;;;;;4.75;2.28;;;11.20;99.90;;;;;;5458039;26;20002;-90
2024/04/15 12:10:01;;;;;;;8.50;2.17;;;11.10;99.90;;;;;;5457865;26;19999;-89
2024/04/15 12:12:27;;;;;;;5.38;1.83;;;11.40;99.90;;;;;;5456680;26;20441;-89
2024/04/15 12:14:52;;;;;;;9.57;2.30;;;10.80;99.90;;;;;;5457426;26;20003;-91
2024/04/15 12:17:18;;;;;;;4.25;2.17;;;10.70;99.90;;;;;;5457288;26;20006;-92
2024/04/15 12:19:43;;;;;;;6.70;2.20;;;10.60;99.90;;;;;;5457861;26;19999;-90
2024/04/15 12:22:09;;;;;;;7.40;2.47;;;10.60;99.90;;;;;;5457680;26;19999;-91
2024/04/15 12:24:34;;;;;;;5.13;2.63;;;10.60;99.90;;;;;;5457587;26;20083;-91
2024/04/15 12:27:00;;;;;;;10.05;2.85;;;10.60;99.90;;;;;;5457594;26;20006;-89
2024/04/15 12:29:25;;;;;;;5.72;0.95;;;10.50;99.90;;;;;;5457572;26;20013;-92
2024/04/15 12:31:51;;;;;;;2.35;0.60;;;9.70;99.90;;;;;;5456790;26;20067;-90
2024/04/15 12:34:17;;;;;;;0.90;0.50;;;9.00;99.90;;;;;;5456955;26;20013;-87
2024/04/15 12:36:43;;;;;;;1.90;0.65;;;8.40;99.90;;;;;;5457041;26;19994;-90